sensor_id;sensor_type;location;lat;lon;timestamp;temperature;humidity
46494;DHT22;53214;49.314;6.280;2022-07-19T06:46:46;23.90;69.10
46494;DHT22;53214;49.314;6.280;2022-07-19T06:49:20;24.10;68.20
46494;DHT22;53214;49.314;6.280;2022-07-19T06:51:47;24.30;68.00
46494;DHT22;53214;49.314;6.280;2022-07-19T06:54:14;24.60;67.10
46494;DHT22;53214;49.314;6.280;2022-07-19T06:56:41;24.80;65.20
46494;DHT22;53214;49.314;6.280;2022-07-19T06:59:08;25.10;64.60
46494;DHT22;53214;49.314;6.280;2022-07-19T07:01:35;25.40;63.50
46494;DHT22;53214;49.314;6.280;2022-07-19T07:04:03;25.60;62.70
46494;DHT22;53214;49.314;6.280;2022-07-19T07:06:29;26.00;58.10
46494;DHT22;53214;49.314;6.280;2022-07-19T07:08:56;26.30;56.00
46494;DHT22;53214;49.314;6.280;2022-07-19T07:11:23;26.60;53.70
46494;DHT22;53214;49.314;6.280;2022-07-19T07:13:50;27.00;52.40
46494;DHT22;53214;49.314;6.280;2022-07-19T07:16:17;27.20;52.10
46494;DHT22;53214;49.314;6.280;2022-07-19T07:18:44;27.40;51.20
46494;DHT22;53214;49.314;6.280;2022-07-19T07:21:11;27.60;50.50
46494;DHT22;53214;49.314;6.280;2022-07-19T07:23:38;27.80;50.30
46494;DHT22;53214;49.314;6.280;2022-07-19T07:26:05;28.00;49.90
46494;DHT22;53214;49.314;6.280;2022-07-19T07:28:32;28.30;49.90
46494;DHT22;53214;49.314;6.280;2022-07-19T07:31:00;28.60;48.70
46494;DHT22;53214;49.314;6.280;2022-07-19T07:33:27;28.90;48.30
46494;DHT22;53214;49.314;6.280;2022-07-19T07:35:54;29.00;47.20
46494;DHT22;53214;49.314;6.280;2022-07-19T07:38:21;29.20;47.50
46494;DHT22;53214;49.314;6.280;2022-07-19T07:40:48;29.50;46.80
46494;DHT22;53214;49.314;6.280;2022-07-19T07:43:19;29.50;46.20
46494;DHT22;53214;49.314;6.280;2022-07-19T07:45:46;29.80;46.40
46494;DHT22;53214;49.314;6.280;2022-07-19T07:48:13;30.30;45.10
46494;DHT22;53214;49.314;6.280;2022-07-19T07:50:40;30.40;44.40
46494;DHT22;53214;49.314;6.280;2022-07-19T07:53:07;30.60;44.00
46494;DHT22;53214;49.314;6.280;2022-07-19T07:55:34;30.60;43.80
46494;DHT22;53214;49.314;6.280;2022-07-19T07:58:07;30.80;43.70
46494;DHT22;53214;49.314;6.280;2022-07-19T08:00:36;31.10;44.00
46494;DHT22;53214;49.314;6.280;2022-07-19T08:03:03;31.50;43.40
46494;DHT22;53214;49.314;6.280;2022-07-19T08:05:30;31.80;42.80
46494;DHT22;53214;49.314;6.280;2022-07-19T08:07:59;31.90;42.40
46494;DHT22;53214;49.314;6.280;2022-07-19T08:10:28;32.00;41.60
46494;DHT22;53214;49.314;6.280;2022-07-19T08:12:55;32.00;41.30
46494;DHT22;53214;49.314;6.280;2022-07-19T08:15:22;32.20;41.40
46494;DHT22;53214;49.314;6.280;2022-07-19T08:17:49;32.60;40.70
46494;DHT22;53214;49.314;6.280;2022-07-19T08:20:16;32.70;40.70
46494;DHT22;53214;49.314;6.280;2022-07-19T08:22:45;33.00;40.80
46494;DHT22;53214;49.314;6.280;2022-07-19T08:25:12;33.40;40.30
46494;DHT22;53214;49.314;6.280;2022-07-19T08:27:44;33.30;39.70
46494;DHT22;53214;49.314;6.280;2022-07-19T08:30:11;33.60;39.50
46494;DHT22;53214;49.314;6.280;2022-07-19T08:32:39;33.80;38.80
46494;DHT22;53214;49.314;6.280;2022-07-19T08:35:09;33.70;39.20
46494;DHT22;53214;49.314;6.280;2022-07-19T08:37:36;34.00;38.80
46494;DHT22;53214;49.314;6.280;2022-07-19T08:40:04;34.20;38.40
46494;DHT22;53214;49.314;6.280;2022-07-19T08:42:32;34.20;38.80
46494;DHT22;53214;49.314;6.280;2022-07-19T08:45:04;34.20;38.10
46494;DHT22;53214;49.314;6.280;2022-07-19T08:47:31;34.50;37.50
46494;DHT22;53214;49.314;6.280;2022-07-19T08:50:00;34.50;37.50
46494;DHT22;53214;49.314;6.280;2022-07-19T08:52:27;34.80;37.40
46494;DHT22;53214;49.314;6.280;2022-07-19T08:54:55;35.00;37.20
46494;DHT22;53214;49.314;6.280;2022-07-19T08:57:25;35.40;36.10
46494;DHT22;53214;49.314;6.280;2022-07-19T09:00:12;35.00;36.10
46494;DHT22;53214;49.314;6.280;2022-07-19T09:02:56;35.20;37.00
46494;DHT22;53214;49.314;6.280;2022-07-19T09:05:24;35.60;36.20
46494;DHT22;53214;49.314;6.280;2022-07-19T09:10:49;36.10;35.30
46494;DHT22;53214;49.314;6.280;2022-07-19T09:13:35;36.30;34.80
46494;DHT22;53214;49.314;6.280;2022-07-19T09:16:03;36.70;35.00
46494;DHT22;53214;49.314;6.280;2022-07-19T09:18:32;36.80;34.50
46494;DHT22;53214;49.314;6.280;2022-07-19T09:21:04;36.60;34.80
46494;DHT22;53214;49.314;6.280;2022-07-19T09:23:32;37.10;34.40
46494;DHT22;53214;49.314;6.280;2022-07-19T09:26:04;37.00;33.70
46494;DHT22;53214;49.314;6.280;2022-07-19T09:28:33;36.70;33.70
46494;DHT22;53214;49.314;6.280;2022-07-19T09:31:03;36.90;34.20
46494;DHT22;53214;49.314;6.280;2022-07-19T09:33:32;37.30;33.80
46494;DHT22;53214;49.314;6.280;2022-07-19T09:36:02;37.80;33.50
46494;DHT22;53214;49.314;6.280;2022-07-19T09:38:30;38.30;33.10
46494;DHT22;53214;49.314;6.280;2022-07-19T09:51:34;39.10;31.30
46494;DHT22;53214;49.314;6.280;2022-07-19T09:54:02;39.40;30.80
46494;DHT22;53214;49.314;6.280;2022-07-19T09:56:31;39.30;29.90
46494;DHT22;53214;49.314;6.280;2022-07-19T09:58:58;39.40;30.40
46494;DHT22;53214;49.314;6.280;2022-07-19T10:01:26;39.90;29.90
46494;DHT22;53214;49.314;6.280;2022-07-19T10:03:58;39.40;29.70
46494;DHT22;53214;49.314;6.280;2022-07-19T10:06:28;39.20;29.90
46494;DHT22;53214;49.314;6.280;2022-07-19T10:08:55;39.50;29.90
46494;DHT22;53214;49.314;6.280;2022-07-19T10:11:22;39.40;29.10
46494;DHT22;53214;49.314;6.280;2022-07-19T10:13:50;39.00;29.70
46494;DHT22;53214;49.314;6.280;2022-07-19T10:16:24;39.30;30.00
46494;DHT22;53214;49.314;6.280;2022-07-19T10:19:02;39.20;30.00
46494;DHT22;53214;49.314;6.280;2022-07-19T10:21:31;39.10;30.00
46494;DHT22;53214;49.314;6.280;2022-07-19T10:23:58;39.00;30.00
46494;DHT22;53214;49.314;6.280;2022-07-19T10:26:36;39.60;30.20
46494;DHT22;53214;49.314;6.280;2022-07-19T10:29:12;40.20;30.20
46494;DHT22;53214;49.314;6.280;2022-07-19T10:31:42;41.10;30.40
46494;DHT22;53214;49.314;6.280;2022-07-19T10:34:20;41.50;30.00
46494;DHT22;53214;49.314;6.280;2022-07-19T10:36:48;41.80;29.20
46494;DHT22;53214;49.314;6.280;2022-07-19T10:48:16;40.50;29.90
46494;DHT22;53214;49.314;6.280;2022-07-19T10:51:02;40.60;28.70
46494;DHT22;53214;49.314;6.280;2022-07-19T10:56:18;41.30;28.50
46494;DHT22;53214;49.314;6.280;2022-07-19T10:58:51;41.80;28.20
46494;DHT22;53214;49.314;6.280;2022-07-19T11:01:20;42.60;27.80
46494;DHT22;53214;49.314;6.280;2022-07-19T11:03:48;42.00;27.50
46494;DHT22;53214;49.314;6.280;2022-07-19T11:06:24;42.30;27.40
46494;DHT22;53214;49.314;6.280;2022-07-19T11:08:56;42.50;27.10
46494;DHT22;53214;49.314;6.280;2022-07-19T11:11:24;42.00;27.20
46494;DHT22;53214;49.314;6.280;2022-07-19T11:13:54;42.30;27.10
46494;DHT22;53214;49.314;6.280;2022-07-19T11:16:25;42.20;26.70
46494;DHT22;53214;49.314;6.280;2022-07-19T11:19:05;42.50;27.00
46494;DHT22;53214;49.314;6.280;2022-07-19T11:21:34;43.40;27.10
46494;DHT22;53214;49.314;6.280;2022-07-19T11:24:05;42.80;26.70
46494;DHT22;53214;49.314;6.280;2022-07-19T11:26:39;41.80;27.00
46494;DHT22;53214;49.314;6.280;2022-07-19T11:29:13;41.60;27.40
46494;DHT22;53214;49.314;6.280;2022-07-19T11:31:47;41.90;27.80
46494;DHT22;53214;49.314;6.280;2022-07-19T11:34:20;42.60;27.80
46494;DHT22;53214;49.314;6.280;2022-07-19T11:36:57;43.20;26.90
46494;DHT22;53214;49.314;6.280;2022-07-19T11:39:24;42.70;26.40
46494;DHT22;53214;49.314;6.280;2022-07-19T11:41:51;42.00;26.30
46494;DHT22;53214;49.314;6.280;2022-07-19T11:44:17;41.90;26.90
46494;DHT22;53214;49.314;6.280;2022-07-19T11:46:44;41.80;26.90
46494;DHT22;53214;49.314;6.280;2022-07-19T11:49:12;41.60;27.20
46494;DHT22;53214;49.314;6.280;2022-07-19T11:51:40;42.40;27.00
46494;DHT22;53214;49.314;6.280;2022-07-19T11:54:07;42.90;26.90
46494;DHT22;53214;49.314;6.280;2022-07-19T11:56:35;43.30;26.50
46494;DHT22;53214;49.314;6.280;2022-07-19T11:59:05;43.80;26.30
46494;DHT22;53214;49.314;6.280;2022-07-19T12:01:34;44.10;26.30
46494;DHT22;53214;49.314;6.280;2022-07-19T12:04:04;44.20;25.90
46494;DHT22;53214;49.314;6.280;2022-07-19T12:06:37;44.10;25.80
46494;DHT22;53214;49.314;6.280;2022-07-19T12:09:09;44.10;25.70
46494;DHT22;53214;49.314;6.280;2022-07-19T12:11:40;44.50;25.70
46494;DHT22;53214;49.314;6.280;2022-07-19T12:14:20;44.30;25.50
46494;DHT22;53214;49.314;6.280;2022-07-19T12:16:50;43.90;25.80
46494;DHT22;53214;49.314;6.280;2022-07-19T12:19:17;43.80;25.50
46494;DHT22;53214;49.314;6.280;2022-07-19T12:21:46;44.40;25.70
46494;DHT22;53214;49.314;6.280;2022-07-19T12:24:22;44.90;25.60
46494;DHT22;53214;49.314;6.280;2022-07-19T12:31:54;44.50;25.20
46494;DHT22;53214;49.314;6.280;2022-07-19T12:34:21;44.60;25.60
46494;DHT22;53214;49.314;6.280;2022-07-19T12:36:48;45.00;25.20
46494;DHT22;53214;49.314;6.280;2022-07-19T12:39:28;44.60;25.10
46494;DHT22;53214;49.314;6.280;2022-07-19T12:44:27;43.50;25.40
46494;DHT22;53214;49.314;6.280;2022-07-19T12:46:55;44.00;25.50
46494;DHT22;53214;49.314;6.280;2022-07-19T12:49:43;44.50;25.30
46494;DHT22;53214;49.314;6.280;2022-07-19T12:52:11;44.80;24.90
46494;DHT22;53214;49.314;6.280;2022-07-19T12:54:38;45.00;24.80
46494;DHT22;53214;49.314;6.280;2022-07-19T12:57:06;44.30;24.50
46494;DHT22;53214;49.314;6.280;2022-07-19T12:59:33;44.30;25.00
46494;DHT22;53214;49.314;6.280;2022-07-19T13:02:15;44.20;24.80
46494;DHT22;53214;49.314;6.280;2022-07-19T13:04:44;44.80;25.00
46494;DHT22;53214;49.314;6.280;2022-07-19T13:07:12;45.10;24.60
46494;DHT22;53214;49.314;6.280;2022-07-19T13:09:40;44.90;24.10
46494;DHT22;53214;49.314;6.280;2022-07-19T13:12:08;43.80;24.20
46494;DHT22;53214;49.314;6.280;2022-07-19T13:14:36;43.30;24.40
46494;DHT22;53214;49.314;6.280;2022-07-19T13:17:03;43.40;24.80
46494;DHT22;53214;49.314;6.280;2022-07-19T13:19:31;43.10;24.80
46494;DHT22;53214;49.314;6.280;2022-07-19T13:21:58;43.30;25.00
46494;DHT22;53214;49.314;6.280;2022-07-19T13:24:25;43.20;24.90
46494;DHT22;53214;49.314;6.280;2022-07-19T13:27:12;43.10;25.10
46494;DHT22;53214;49.314;6.280;2022-07-19T13:29:39;43.10;25.00
46494;DHT22;53214;49.314;6.280;2022-07-19T13:32:06;42.10;24.90
46494;DHT22;53214;49.314;6.280;2022-07-19T13:34:35;42.70;24.90
46494;DHT22;53214;49.314;6.280;2022-07-19T13:37:02;42.90;25.10
46494;DHT22;53214;49.314;6.280;2022-07-19T13:39:30;43.70;25.10
46494;DHT22;53214;49.314;6.280;2022-07-19T13:41:57;44.40;24.70
46494;DHT22;53214;49.314;6.280;2022-07-19T13:44:25;44.70;24.30
46494;DHT22;53214;49.314;6.280;2022-07-19T13:46:52;44.90;24.30
46494;DHT22;53214;49.314;6.280;2022-07-19T13:49:18;44.40;23.70
46494;DHT22;53214;49.314;6.280;2022-07-19T13:51:46;43.90;24.00
46494;DHT22;53214;49.314;6.280;2022-07-19T13:54:14;43.40;23.90
46494;DHT22;53214;49.314;6.280;2022-07-19T13:56:41;43.50;24.10
46494;DHT22;53214;49.314;6.280;2022-07-19T13:59:09;43.20;24.00
46494;DHT22;53214;49.314;6.280;2022-07-19T14:01:36;43.20;24.00
46494;DHT22;53214;49.314;6.280;2022-07-19T14:04:13;42.50;24.40
46494;DHT22;53214;49.314;6.280;2022-07-19T14:06:48;42.30;23.90
46494;DHT22;53214;49.314;6.280;2022-07-19T14:09:15;42.40;24.20
46494;DHT22;53214;49.314;6.280;2022-07-19T14:11:43;42.50;24.30
46494;DHT22;53214;49.314;6.280;2022-07-19T14:14:12;41.90;24.90
46494;DHT22;53214;49.314;6.280;2022-07-19T14:16:40;42.10;25.30
46494;DHT22;53214;49.314;6.280;2022-07-19T14:19:07;42.20;25.00
46494;DHT22;53214;49.314;6.280;2022-07-19T14:21:35;41.90;25.40
46494;DHT22;53214;49.314;6.280;2022-07-19T14:24:02;41.70;25.50
46494;DHT22;53214;49.314;6.280;2022-07-19T14:26:29;41.70;25.50
46494;DHT22;53214;49.314;6.280;2022-07-19T14:28:56;41.20;25.60
46494;DHT22;53214;49.314;6.280;2022-07-19T14:31:23;40.30;25.00
46494;DHT22;53214;49.314;6.280;2022-07-19T14:33:50;39.90;25.50
46494;DHT22;53214;49.314;6.280;2022-07-19T14:36:37;39.60;25.70
46494;DHT22;53214;49.314;6.280;2022-07-19T14:39:04;39.30;26.00
46494;DHT22;53214;49.314;6.280;2022-07-19T14:41:32;39.00;25.30
46494;DHT22;53214;49.314;6.280;2022-07-19T14:44:00;38.70;25.30
46494;DHT22;53214;49.314;6.280;2022-07-19T14:46:27;38.50;25.60
46494;DHT22;53214;49.314;6.280;2022-07-19T14:48:54;38.40;25.80
46494;DHT22;53214;49.314;6.280;2022-07-19T14:51:21;38.20;25.60
46494;DHT22;53214;49.314;6.280;2022-07-19T14:53:48;38.00;25.60
46494;DHT22;53214;49.314;6.280;2022-07-19T14:56:15;38.00;25.70
46494;DHT22;53214;49.314;6.280;2022-07-19T14:58:42;37.90;26.20
46494;DHT22;53214;49.314;6.280;2022-07-19T15:01:09;37.80;26.20
46494;DHT22;53214;49.314;6.280;2022-07-19T15:03:36;37.60;25.90
46494;DHT22;53214;49.314;6.280;2022-07-19T15:06:03;37.50;26.00
46494;DHT22;53214;49.314;6.280;2022-07-19T15:08:30;37.50;26.30
46494;DHT22;53214;49.314;6.280;2022-07-19T15:10:57;37.50;26.60
46494;DHT22;53214;49.314;6.280;2022-07-19T15:13:24;37.50;26.50
46494;DHT22;53214;49.314;6.280;2022-07-19T15:15:51;37.40;26.70
46494;DHT22;53214;49.314;6.280;2022-07-19T15:18:19;37.40;26.80
46494;DHT22;53214;49.314;6.280;2022-07-19T15:20:47;37.40;26.50
46494;DHT22;53214;49.314;6.280;2022-07-19T15:23:15;37.30;26.30
46494;DHT22;53214;49.314;6.280;2022-07-19T15:25:42;37.20;26.30
46494;DHT22;53214;49.314;6.280;2022-07-19T15:28:08;37.20;26.30
46494;DHT22;53214;49.314;6.280;2022-07-19T15:30:35;37.20;26.40
46494;DHT22;53214;49.314;6.280;2022-07-19T15:33:02;37.20;26.90
46494;DHT22;53214;49.314;6.280;2022-07-19T15:35:29;37.20;27.00
46494;DHT22;53214;49.314;6.280;2022-07-19T15:37:56;37.20;27.00
46494;DHT22;53214;49.314;6.280;2022-07-19T15:40:24;37.10;26.80
46494;DHT22;53214;49.314;6.280;2022-07-19T15:42:51;37.20;26.40
46494;DHT22;53214;49.314;6.280;2022-07-19T15:45:19;37.10;26.20
46494;DHT22;53214;49.314;6.280;2022-07-19T15:47:48;37.10;26.00
46494;DHT22;53214;49.314;6.280;2022-07-19T15:50:17;37.20;25.50
46494;DHT22;53214;49.314;6.280;2022-07-19T15:52:44;37.10;25.30
46494;DHT22;53214;49.314;6.280;2022-07-19T15:55:12;37.10;25.60
46494;DHT22;53214;49.314;6.280;2022-07-19T15:57:39;37.00;25.40
46494;DHT22;53214;49.314;6.280;2022-07-19T16:00:08;37.00;25.60
46494;DHT22;53214;49.314;6.280;2022-07-19T16:02:37;37.00;25.70
46494;DHT22;53214;49.314;6.280;2022-07-19T16:05:07;37.00;25.60
46494;DHT22;53214;49.314;6.280;2022-07-19T16:07:34;37.00;25.40
46494;DHT22;53214;49.314;6.280;2022-07-19T16:10:03;37.00;25.30
46494;DHT22;53214;49.314;6.280;2022-07-19T16:12:30;37.00;25.40
46494;DHT22;53214;49.314;6.280;2022-07-19T16:14:57;37.00;25.60
46494;DHT22;53214;49.314;6.280;2022-07-19T16:17:24;37.00;25.40
46494;DHT22;53214;49.314;6.280;2022-07-19T16:19:52;37.00;25.70
46494;DHT22;53214;49.314;6.280;2022-07-19T16:22:20;37.10;25.80
46494;DHT22;53214;49.314;6.280;2022-07-19T16:24:47;37.10;25.80
46494;DHT22;53214;49.314;6.280;2022-07-19T16:27:14;37.10;26.10
46494;DHT22;53214;49.314;6.280;2022-07-19T16:29:47;37.10;26.00
46494;DHT22;53214;49.314;6.280;2022-07-19T16:32:14;37.10;24.10
46494;DHT22;53214;49.314;6.280;2022-07-19T16:34:42;37.00;24.20
46494;DHT22;53214;49.314;6.280;2022-07-19T16:37:17;37.00;24.60
46494;DHT22;53214;49.314;6.280;2022-07-19T16:39:44;37.00;25.20
46494;DHT22;53214;49.314;6.280;2022-07-19T16:42:11;37.00;26.10
46494;DHT22;53214;49.314;6.280;2022-07-19T16:44:39;37.00;26.10
46494;DHT22;53214;49.314;6.280;2022-07-19T16:47:06;37.00;26.00
46494;DHT22;53214;49.314;6.280;2022-07-19T16:49:34;37.00;26.00
46494;DHT22;53214;49.314;6.280;2022-07-19T16:52:10;37.00;26.00
46494;DHT22;53214;49.314;6.280;2022-07-19T16:54:38;37.00;25.60
46494;DHT22;53214;49.314;6.280;2022-07-19T16:57:06;37.00;25.70
46494;DHT22;53214;49.314;6.280;2022-07-19T16:59:33;37.00;25.70
46494;DHT22;53214;49.314;6.280;2022-07-19T17:02:00;37.00;26.30
46494;DHT22;53214;49.314;6.280;2022-07-19T17:04:28;36.90;26.10
46494;DHT22;53214;49.314;6.280;2022-07-19T17:06:55;36.90;26.20
46494;DHT22;53214;49.314;6.280;2022-07-19T17:09:22;36.90;26.00
46494;DHT22;53214;49.314;6.280;2022-07-19T17:11:50;36.80;25.80
46494;DHT22;53214;49.314;6.280;2022-07-19T17:14:17;36.80;25.70
46494;DHT22;53214;49.314;6.280;2022-07-19T17:16:45;36.80;26.10
46494;DHT22;53214;49.314;6.280;2022-07-19T17:19:12;36.80;26.40
46494;DHT22;53214;49.314;6.280;2022-07-19T17:21:39;36.80;26.30
46494;DHT22;53214;49.314;6.280;2022-07-19T17:24:06;36.70;26.60
46494;DHT22;53214;49.314;6.280;2022-07-19T17:26:33;36.70;26.50
46494;DHT22;53214;49.314;6.280;2022-07-19T17:29:00;36.70;26.70
46494;DHT22;53214;49.314;6.280;2022-07-19T17:31:27;36.70;26.80
46494;DHT22;53214;49.314;6.280;2022-07-19T17:33:55;36.60;27.00
46494;DHT22;53214;49.314;6.280;2022-07-19T17:36:22;36.60;27.10
46494;DHT22;53214;49.314;6.280;2022-07-19T17:38:50;36.50;26.90
46494;DHT22;53214;49.314;6.280;2022-07-19T17:41:18;36.50;26.90
46494;DHT22;53214;49.314;6.280;2022-07-19T17:43:46;36.40;26.80
46494;DHT22;53214;49.314;6.280;2022-07-19T17:46:13;36.40;26.80
46494;DHT22;53214;49.314;6.280;2022-07-19T17:48:41;36.40;26.80
46494;DHT22;53214;49.314;6.280;2022-07-19T17:51:14;36.30;27.00
46494;DHT22;53214;49.314;6.280;2022-07-19T17:53:41;36.30;27.70
46494;DHT22;53214;49.314;6.280;2022-07-19T17:56:08;36.30;27.30
46494;DHT22;53214;49.314;6.280;2022-07-19T17:58:35;36.30;27.50
46494;DHT22;53214;49.314;6.280;2022-07-19T18:01:02;36.20;27.60
46494;DHT22;53214;49.314;6.280;2022-07-19T18:03:29;36.10;27.60
46494;DHT22;53214;49.314;6.280;2022-07-19T18:05:56;36.00;27.60
46494;DHT22;53214;49.314;6.280;2022-07-19T18:08:23;36.00;27.70
46494;DHT22;53214;49.314;6.280;2022-07-19T18:10:50;35.80;27.80
46494;DHT22;53214;49.314;6.280;2022-07-19T18:13:17;35.70;27.90
46494;DHT22;53214;49.314;6.280;2022-07-19T18:15:44;35.70;28.00
46494;DHT22;53214;49.314;6.280;2022-07-19T18:18:31;35.60;28.10
46494;DHT22;53214;49.314;6.280;2022-07-19T18:20:58;35.50;28.40
46494;DHT22;53214;49.314;6.280;2022-07-19T18:23:25;35.40;28.50
46494;DHT22;53214;49.314;6.280;2022-07-19T18:25:52;35.30;28.60
46494;DHT22;53214;49.314;6.280;2022-07-19T18:28:19;35.10;29.00
46494;DHT22;53214;49.314;6.280;2022-07-19T18:30:46;35.00;28.90
46494;DHT22;53214;49.314;6.280;2022-07-19T18:33:13;34.90;28.90
46494;DHT22;53214;49.314;6.280;2022-07-19T18:35:42;34.80;29.70
46494;DHT22;53214;49.314;6.280;2022-07-19T18:38:09;34.70;29.40
46494;DHT22;53214;49.314;6.280;2022-07-19T18:40:36;34.50;29.40
46494;DHT22;53214;49.314;6.280;2022-07-19T18:43:05;34.40;29.50
46494;DHT22;53214;49.314;6.280;2022-07-19T18:45:32;34.30;29.60
46494;DHT22;53214;49.314;6.280;2022-07-19T18:47:59;34.10;29.70
46494;DHT22;53214;49.314;6.280;2022-07-19T18:50:27;34.00;29.90
46494;DHT22;53214;49.314;6.280;2022-07-19T18:52:55;33.90;30.00
46494;DHT22;53214;49.314;6.280;2022-07-19T18:55:22;33.70;30.10
46494;DHT22;53214;49.314;6.280;2022-07-19T18:57:49;33.60;30.30
46494;DHT22;53214;49.314;6.280;2022-07-19T19:00:16;33.40;30.50
46494;DHT22;53214;49.314;6.280;2022-07-19T19:02:47;33.30;30.90
46494;DHT22;53214;49.314;6.280;2022-07-19T19:05:15;33.20;31.00
46494;DHT22;53214;49.314;6.280;2022-07-19T19:07:42;33.00;32.00
46494;DHT22;53214;49.314;6.280;2022-07-19T19:10:09;32.90;31.40
46494;DHT22;53214;49.314;6.280;2022-07-19T19:12:36;32.70;31.60
46494;DHT22;53214;49.314;6.280;2022-07-19T19:15:07;32.50;31.90
46494;DHT22;53214;49.314;6.280;2022-07-19T19:17:34;32.40;32.10
46494;DHT22;53214;49.314;6.280;2022-07-19T19:20:02;32.20;32.50
46494;DHT22;53214;49.314;6.280;2022-07-19T19:22:29;32.10;32.70
46494;DHT22;53214;49.314;6.280;2022-07-19T19:24:56;31.90;33.00
46494;DHT22;53214;49.314;6.280;2022-07-19T19:27:23;31.70;33.30
46494;DHT22;53214;49.314;6.280;2022-07-19T19:29:50;31.70;33.70
46494;DHT22;53214;49.314;6.280;2022-07-19T19:32:17;31.50;33.80
46494;DHT22;53214;49.314;6.280;2022-07-19T19:34:44;31.40;34.10
46494;DHT22;53214;49.314;6.280;2022-07-19T19:37:11;31.30;34.60
46494;DHT22;53214;49.314;6.280;2022-07-19T19:39:38;31.20;34.90
46494;DHT22;53214;49.314;6.280;2022-07-19T19:42:05;31.00;35.10
46494;DHT22;53214;49.314;6.280;2022-07-19T19:44:33;30.90;35.60
46494;DHT22;53214;49.314;6.280;2022-07-19T19:47:00;30.80;35.60
46494;DHT22;53214;49.314;6.280;2022-07-19T19:49:27;30.60;35.90
46494;DHT22;53214;49.314;6.280;2022-07-19T19:51:54;30.50;36.20
46494;DHT22;53214;49.314;6.280;2022-07-19T19:54:21;30.30;37.60
46494;DHT22;53214;49.314;6.280;2022-07-19T19:56:48;30.10;37.80
46494;DHT22;53214;49.314;6.280;2022-07-19T19:59:21;29.80;38.20
46494;DHT22;53214;49.314;6.280;2022-07-19T20:01:48;29.70;37.70
46494;DHT22;53214;49.314;6.280;2022-07-19T20:04:15;29.70;37.20
46494;DHT22;53214;49.314;6.280;2022-07-19T20:06:41;29.60;37.10
46494;DHT22;53214;49.314;6.280;2022-07-19T20:09:09;29.60;37.50
46494;DHT22;53214;49.314;6.280;2022-07-19T20:11:36;29.50;37.30
46494;DHT22;53214;49.314;6.280;2022-07-19T20:14:03;29.50;37.50
46494;DHT22;53214;49.314;6.280;2022-07-19T20:16:30;29.50;37.40
46494;DHT22;53214;49.314;6.280;2022-07-19T20:18:57;29.40;37.40
46494;DHT22;53214;49.314;6.280;2022-07-19T20:21:24;29.40;37.40
46494;DHT22;53214;49.314;6.280;2022-07-19T20:23:51;29.40;37.30
46494;DHT22;53214;49.314;6.280;2022-07-19T20:26:18;29.30;37.50
46494;DHT22;53214;49.314;6.280;2022-07-19T20:28:45;29.30;37.70
46494;DHT22;53214;49.314;6.280;2022-07-19T20:31:12;29.20;37.70
46494;DHT22;53214;49.314;6.280;2022-07-19T20:33:39;29.20;37.90
46494;DHT22;53214;49.314;6.280;2022-07-19T20:36:06;29.10;38.00
46494;DHT22;53214;49.314;6.280;2022-07-19T20:38:35;29.10;38.20
46494;DHT22;53214;49.314;6.280;2022-07-19T20:41:03;29.10;38.10
46494;DHT22;53214;49.314;6.280;2022-07-19T20:43:31;29.00;38.20
46494;DHT22;53214;49.314;6.280;2022-07-19T20:46:04;29.00;38.30
46494;DHT22;53214;49.314;6.280;2022-07-19T20:48:31;29.00;38.60
46494;DHT22;53214;49.314;6.280;2022-07-19T20:50:58;29.00;38.70
46494;DHT22;53214;49.314;6.280;2022-07-19T20:53:25;28.90;38.80
46494;DHT22;53214;49.314;6.280;2022-07-19T20:55:53;28.90;38.90
46494;DHT22;53214;49.314;6.280;2022-07-19T20:58:20;28.80;39.00
46494;DHT22;53214;49.314;6.280;2022-07-19T21:00:47;28.90;39.10
46494;DHT22;53214;49.314;6.280;2022-07-19T21:03:14;28.80;39.20
46494;DHT22;53214;49.314;6.280;2022-07-19T21:05:41;28.80;39.30
46494;DHT22;53214;49.314;6.280;2022-07-19T21:08:08;28.70;39.40
46494;DHT22;53214;49.314;6.280;2022-07-19T21:10:40;28.60;39.40
46494;DHT22;53214;49.314;6.280;2022-07-19T21:13:07;28.60;39.60
46494;DHT22;53214;49.314;6.280;2022-07-19T21:15:35;28.50;39.60
46494;DHT22;53214;49.314;6.280;2022-07-19T21:18:02;28.40;39.60
46494;DHT22;53214;49.314;6.280;2022-07-19T21:20:29;28.40;39.60
46494;DHT22;53214;49.314;6.280;2022-07-19T21:22:56;28.50;39.80
46494;DHT22;53214;49.314;6.280;2022-07-19T21:25:23;28.40;39.80
46494;DHT22;53214;49.314;6.280;2022-07-19T21:27:50;28.40;39.80
46494;DHT22;53214;49.314;6.280;2022-07-19T21:30:17;28.40;39.80
46494;DHT22;53214;49.314;6.280;2022-07-19T21:32:44;28.40;39.80
46494;DHT22;53214;49.314;6.280;2022-07-19T21:35:11;28.40;39.80
46494;DHT22;53214;49.314;6.280;2022-07-19T21:37:38;28.40;39.90
46494;DHT22;53214;49.314;6.280;2022-07-19T21:40:06;28.40;40.00
46494;DHT22;53214;49.314;6.280;2022-07-19T21:42:33;28.40;39.90
46494;DHT22;53214;49.314;6.280;2022-07-19T21:45:00;28.40;40.00
46494;DHT22;53214;49.314;6.280;2022-07-19T21:47:27;28.30;39.90
46494;DHT22;53214;49.314;6.280;2022-07-19T21:49:54;28.30;40.10
46494;DHT22;53214;49.314;6.280;2022-07-19T21:52:21;28.30;40.00
46494;DHT22;53214;49.314;6.280;2022-07-19T21:54:48;28.20;40.00
46494;DHT22;53214;49.314;6.280;2022-07-19T21:57:19;28.20;40.00
46494;DHT22;53214;49.314;6.280;2022-07-19T21:59:46;28.30;40.20
46494;DHT22;53214;49.314;6.280;2022-07-19T22:02:13;28.30;40.10
46494;DHT22;53214;49.314;6.280;2022-07-19T22:04:43;28.20;40.70
46494;DHT22;53214;49.314;6.280;2022-07-19T22:07:10;28.20;40.20
46494;DHT22;53214;49.314;6.280;2022-07-19T22:09:37;28.20;40.30
46494;DHT22;53214;49.314;6.280;2022-07-19T22:12:04;28.10;40.30
46494;DHT22;53214;49.314;6.280;2022-07-19T22:14:31;28.10;40.50
46494;DHT22;53214;49.314;6.280;2022-07-19T22:16:58;28.00;40.60
46494;DHT22;53214;49.314;6.280;2022-07-19T22:19:25;28.00;41.40
46494;DHT22;53214;49.314;6.280;2022-07-19T22:21:52;27.90;41.60
46494;DHT22;53214;49.314;6.280;2022-07-19T22:24:19;27.80;41.70
46494;DHT22;53214;49.314;6.280;2022-07-19T22:26:46;27.70;41.90
46494;DHT22;53214;49.314;6.280;2022-07-19T22:29:13;27.60;42.20
46494;DHT22;53214;49.314;6.280;2022-07-19T22:31:40;27.50;42.70
46494;DHT22;53214;49.314;6.280;2022-07-19T22:34:07;27.40;42.50
46494;DHT22;53214;49.314;6.280;2022-07-19T22:36:34;27.30;42.60
46494;DHT22;53214;49.314;6.280;2022-07-19T22:39:01;27.20;42.70
46494;DHT22;53214;49.314;6.280;2022-07-19T22:41:29;27.20;42.80
46494;DHT22;53214;49.314;6.280;2022-07-19T22:43:56;27.10;43.10
46494;DHT22;53214;49.314;6.280;2022-07-19T22:46:23;27.10;42.90
46494;DHT22;53214;49.314;6.280;2022-07-19T22:48:50;27.10;44.60
46494;DHT22;53214;49.314;6.280;2022-07-19T22:51:18;27.10;45.40
46494;DHT22;53214;49.314;6.280;2022-07-19T22:53:47;26.90;44.50
46494;DHT22;53214;49.314;6.280;2022-07-19T22:56:14;26.70;44.40